createdAt,value
2023-11-17T00:00:09.242Z,96.15
2023-11-17T00:00:19.251Z,96.15
2023-11-17T00:00:29.294Z,96.15
2023-11-17T00:00:39.193Z,96.01
2023-11-17T00:00:49.254Z,96.01
2023-11-17T00:00:59.268Z,96.01
2023-11-17T00:01:19.246Z,96.05
2023-11-17T00:01:29.379Z,96.01
2023-11-17T00:01:39.200Z,96.05
2023-11-17T00:01:49.239Z,96.05
2023-11-17T00:02:00.216Z,95.95
2023-11-17T00:02:09.274Z,95.90
2023-11-17T00:02:29.274Z,95.80
2023-11-17T00:02:39.301Z,95.80
2023-11-17T00:02:49.291Z,95.84
2023-11-17T00:02:59.331Z,95.80
2023-11-17T00:03:09.348Z,95.90
2023-11-17T00:03:22.282Z,95.84
2023-11-17T00:03:39.266Z,95.90
2023-11-17T00:03:49.275Z,95.95
2023-11-17T00:03:59.316Z,96.01
2023-11-17T00:04:09.323Z,96.05
2023-11-17T00:04:19.331Z,96.15
2023-11-17T00:04:29.301Z,96.15
2023-11-17T00:04:39.363Z,95.95
2023-11-17T00:04:59.249Z,96.01
2023-11-17T00:05:09.242Z,95.84
2023-11-17T00:05:19.181Z,95.84
2023-11-17T00:05:29.201Z,95.84
2023-11-17T00:05:39.176Z,95.80
2023-11-17T00:05:49.197Z,95.95
2023-11-17T00:05:59.201Z,95.80
2023-11-17T00:06:09.240Z,95.84
2023-11-17T00:06:19.185Z,95.95
2023-11-17T00:06:29.190Z,96.05
2023-11-17T00:06:39.191Z,95.95
2023-11-17T00:06:59.232Z,96.01
2023-11-17T00:07:09.257Z,96.15
2023-11-17T00:07:19.725Z,96.15
2023-11-17T00:07:29.241Z,96.11
2023-11-17T00:07:39.181Z,96.01
2023-11-17T00:07:49.185Z,96.05
2023-11-17T00:08:09.183Z,96.01
2023-11-17T00:08:19.191Z,96.05
2023-11-17T00:08:29.168Z,96.21
2023-11-17T00:08:39.183Z,96.11
2023-11-17T00:08:49.171Z,96.11
2023-11-17T00:08:59.168Z,96.11
2023-11-17T00:09:09.231Z,96.21
2023-11-17T00:09:19.189Z,96.11
2023-11-17T00:09:39.195Z,96.15
2023-11-17T00:09:49.217Z,96.05
2023-11-17T00:09:59.386Z,96.05
2023-11-17T00:10:09.266Z,95.95
2023-11-17T00:10:19.272Z,95.95
2023-11-17T00:10:29.198Z,95.95
2023-11-17T00:10:49.183Z,96.05
2023-11-17T00:11:00.234Z,96.05
2023-11-17T00:11:09.166Z,95.84
2023-11-17T00:11:20.159Z,96.05
2023-11-17T00:11:32.196Z,95.80
2023-11-17T00:11:39.245Z,95.95
2023-11-17T00:11:59.143Z,95.95
2023-11-17T00:12:09.168Z,96.11
2023-11-17T00:12:20.136Z,95.99
2023-11-17T00:12:30.151Z,96.01
2023-11-17T00:12:39.173Z,95.95
2023-11-17T00:12:49.175Z,95.95
2023-11-17T00:12:59.216Z,95.84
2023-11-17T00:13:09.222Z,95.95
2023-11-17T00:13:29.154Z,95.80
2023-11-17T00:13:39.179Z,95.84
2023-11-17T00:13:49.143Z,95.84
2023-11-17T00:13:59.293Z,95.90
2023-11-17T00:14:09.160Z,95.80
2023-11-17T00:14:19.134Z,95.95
2023-11-17T00:14:29.154Z,96.11
2023-11-17T00:14:49.160Z,96.11
2023-11-17T00:14:59.154Z,96.15
2023-11-17T00:15:09.236Z,96.11
2023-11-17T00:15:19.668Z,96.21
2023-11-17T00:15:29.766Z,96.26
2023-11-17T00:15:39.657Z,96.21
2023-11-17T00:15:59.224Z,96.31
2023-11-17T00:16:09.239Z,96.11
2023-11-17T00:16:19.180Z,96.11
2023-11-17T00:16:29.225Z,96.15
2023-11-17T00:16:39.261Z,96.36
2023-11-17T00:16:49.260Z,96.21
2023-11-17T00:16:59.281Z,96.11
2023-11-17T00:17:19.244Z,96.36
2023-11-17T00:17:29.333Z,96.21
2023-11-17T00:17:39.227Z,96.15
2023-11-17T00:17:49.177Z,95.84
2023-11-17T00:17:59.188Z,95.59
2023-11-17T00:18:09.180Z,95.53
2023-11-17T00:18:29.159Z,95.32
2023-11-17T00:18:39.130Z,95.22
2023-11-17T00:18:51.195Z,95.32
2023-11-17T00:18:59.153Z,95.32
2023-11-17T00:19:09.191Z,95.43
2023-11-17T00:19:19.169Z,95.43
2023-11-17T00:19:39.641Z,95.53
2023-11-17T00:19:49.168Z,95.53
2023-11-17T00:19:59.110Z,95.43
2023-11-17T00:20:09.345Z,95.32
2023-11-17T00:20:19.149Z,95.12
2023-11-17T00:20:29.113Z,95.12
2023-11-17T00:20:49.118Z,94.92
2023-11-17T00:20:59.128Z,95.02
2023-11-17T00:21:09.179Z,94.97
2023-11-17T00:21:19.196Z,95.02
2023-11-17T00:21:29.638Z,95.07
2023-11-17T00:21:39.121Z,95.32
2023-11-17T00:21:59.174Z,95.43
2023-11-17T00:22:09.144Z,95.64
2023-11-17T00:22:19.138Z,95.64
2023-11-17T00:22:29.131Z,95.74
2023-11-17T00:22:39.123Z,95.64
2023-11-17T00:22:49.170Z,95.74
2023-11-17T00:22:59.118Z,95.84
2023-11-17T00:23:09.131Z,95.90
2023-11-17T00:23:19.131Z,95.95
2023-11-17T00:23:39.138Z,95.95
2023-11-17T00:23:49.133Z,96.05
2023-11-17T00:23:59.228Z,96.05
2023-11-17T00:24:09.658Z,96.05
2023-11-17T00:24:19.108Z,96.15
2023-11-17T00:24:29.641Z,96.26
2023-11-17T00:24:39.661Z,96.15
2023-11-17T00:24:59.657Z,96.26
2023-11-17T00:25:09.112Z,96.21
2023-11-17T00:25:19.194Z,96.36
2023-11-17T00:25:29.176Z,96.36
2023-11-17T00:25:39.091Z,96.52
2023-11-17T00:25:49.098Z,96.47
2023-11-17T00:26:09.085Z,96.56
2023-11-17T00:26:19.113Z,96.56
2023-11-17T00:26:29.128Z,96.56
2023-11-17T00:26:39.171Z,96.31
2023-11-17T00:26:49.103Z,96.36
2023-11-17T00:26:59.114Z,96.21
2023-11-17T00:27:09.095Z,96.31
2023-11-17T00:27:19.117Z,96.26
2023-11-17T00:27:39.693Z,96.15
2023-11-17T00:27:49.116Z,96.15
2023-11-17T00:27:59.165Z,96.15
2023-11-17T00:28:09.315Z,96.11
2023-11-17T00:28:19.127Z,96.26
2023-11-17T00:28:29.078Z,96.31
2023-11-17T00:28:49.106Z,96.36
2023-11-17T00:28:59.075Z,96.36
2023-11-17T00:29:09.093Z,96.21
2023-11-17T00:29:19.664Z,96.47
2023-11-17T00:29:29.076Z,96.36
2023-11-17T00:29:39.087Z,96.31
2023-11-17T00:29:59.090Z,96.47
2023-11-17T00:30:09.087Z,96.47
2023-11-17T00:30:19.079Z,96.42
2023-11-17T00:30:29.075Z,96.42
2023-11-17T00:30:39.097Z,96.56
2023-11-17T00:30:49.093Z,96.47
2023-11-17T00:31:09.151Z,96.47
2023-11-17T00:31:19.155Z,96.42
2023-11-17T00:31:29.667Z,96.47
2023-11-17T00:31:39.071Z,96.47
2023-11-17T00:31:49.072Z,96.21
2023-11-17T00:31:59.100Z,96.05
2023-11-17T00:32:09.137Z,95.84
2023-11-17T00:32:19.238Z,95.64
2023-11-17T00:32:39.113Z,95.53
2023-11-17T00:32:49.147Z,95.43
2023-11-17T00:32:59.120Z,95.22
2023-11-17T00:33:09.158Z,95.22
2023-11-17T00:33:19.650Z,95.12
2023-11-17T00:33:29.066Z,95.02
2023-11-17T00:33:49.199Z,95.06
2023-11-17T00:33:59.250Z,94.96
2023-11-17T00:34:09.329Z,94.92
2023-11-17T00:34:19.168Z,94.92
2023-11-17T00:34:29.127Z,94.92
2023-11-17T00:34:39.108Z,94.96
2023-11-17T00:34:49.161Z,94.92
2023-11-17T00:35:09.124Z,95.02
2023-11-17T00:35:19.106Z,95.06
2023-11-17T00:35:29.086Z,95.02
2023-11-17T00:35:39.055Z,95.06
2023-11-17T00:35:49.074Z,95.12
2023-11-17T00:35:59.048Z,95.12
2023-11-17T00:36:09.065Z,95.27
2023-11-17T00:36:19.068Z,95.22
2023-11-17T00:36:39.044Z,95.12
2023-11-17T00:36:49.083Z,95.02
2023-11-17T00:36:59.082Z,94.81
2023-11-17T00:37:09.272Z,94.60
2023-11-17T00:37:19.111Z,94.44
2023-11-17T00:37:29.083Z,94.44
2023-11-17T00:37:49.072Z,94.54
2023-11-17T00:37:59.034Z,94.50
2023-11-17T00:38:09.069Z,94.65
2023-11-17T00:38:19.102Z,94.81
2023-11-17T00:38:29.066Z,94.81
2023-11-17T00:38:39.061Z,94.81
2023-11-17T00:38:59.665Z,94.92
2023-11-17T00:39:09.049Z,95.02
2023-11-17T00:39:19.038Z,95.02
2023-11-17T00:39:29.050Z,95.06
2023-11-17T00:39:39.200Z,95.02
2023-11-17T00:39:49.061Z,95.02
2023-11-17T00:40:09.114Z,94.81
2023-11-17T00:40:19.713Z,94.81
2023-11-17T00:40:29.027Z,94.81
2023-11-17T00:40:39.059Z,94.81
2023-11-17T00:40:49.085Z,94.81
2023-11-17T00:40:59.040Z,94.75
2023-11-17T00:41:24.725Z,94.60
2023-11-17T00:41:39.080Z,94.54
2023-11-17T00:41:49.024Z,94.54
2023-11-17T00:41:59.033Z,94.65
2023-11-17T00:42:09.219Z,94.65
2023-11-17T00:42:29.038Z,94.60
2023-11-17T00:42:39.029Z,94.71
2023-11-17T00:43:03.781Z,94.60
2023-11-17T00:43:04.070Z,94.44
2023-11-17T00:43:14.000Z,94.34
2023-11-17T00:43:24.021Z,94.19
2023-11-17T00:43:33.991Z,94.19
2023-11-17T00:43:43.994Z,94.09
2023-11-17T00:44:04.002Z,94.13
2023-11-17T00:44:14.643Z,94.13
2023-11-17T00:44:24.112Z,94.19
2023-11-17T00:44:33.983Z,94.23
2023-11-17T00:44:44.019Z,94.34
2023-11-17T00:44:53.980Z,94.29
2023-11-17T00:45:14.023Z,94.34
2023-11-17T00:45:24.069Z,94.29
2023-11-17T00:45:34.001Z,94.34
2023-11-17T00:45:44.082Z,94.09
2023-11-17T00:45:54.049Z,94.23
2023-11-17T00:46:04.073Z,94.09
2023-11-17T00:46:14.203Z,94.13
2023-11-17T00:46:34.146Z,94.13
2023-11-17T00:46:44.164Z,93.98
2023-11-17T00:46:54.066Z,93.88
2023-11-17T00:47:04.115Z,93.82
2023-11-17T00:47:14.039Z,93.78
2023-11-17T00:47:23.984Z,93.72
2023-11-17T00:47:44.038Z,93.51
2023-11-17T00:47:54.696Z,93.26
2023-11-17T00:48:04.030Z,93.20
2023-11-17T00:48:14.015Z,93.10
2023-11-17T00:48:23.984Z,93.10
2023-11-17T00:48:34.026Z,93.05
2023-11-17T00:48:44.033Z,93.10
2023-11-17T00:49:04.017Z,93.41
2023-11-17T00:49:14.004Z,93.41
2023-11-17T00:49:24.032Z,93.41
2023-11-17T00:49:34.124Z,93.30
2023-11-17T00:49:43.973Z,93.16
2023-11-17T00:49:53.961Z,93.30
2023-11-17T00:50:14.663Z,93.24
2023-11-17T00:50:23.968Z,93.20
2023-11-17T00:50:33.947Z,93.20
2023-11-17T00:50:43.956Z,93.20
2023-11-17T00:50:53.974Z,93.26
2023-11-17T00:51:03.974Z,93.20
2023-11-17T00:51:23.953Z,93.20
2023-11-17T00:51:33.945Z,93.30
2023-11-17T00:51:43.988Z,93.41
2023-11-17T00:51:54.135Z,93.41
2023-11-17T00:52:03.965Z,93.30
2023-11-17T00:52:14.720Z,93.16
2023-11-17T00:52:24.184Z,93.10
2023-11-17T00:52:34.051Z,92.99
2023-11-17T00:52:43.953Z,92.99
2023-11-17T00:52:53.982Z,92.99
2023-11-17T00:53:03.948Z,92.99
2023-11-17T00:53:23.959Z,92.89
2023-11-17T00:53:34.031Z,92.79
2023-11-17T00:53:43.989Z,92.68
2023-11-17T00:53:54.096Z,92.72
2023-11-17T00:54:03.941Z,92.58
2023-11-17T00:54:13.958Z,92.68
2023-11-17T00:54:34.026Z,92.64
2023-11-17T00:54:44.254Z,92.72
2023-11-17T00:54:53.986Z,92.68
2023-11-17T00:55:04.001Z,92.64
2023-11-17T00:55:14.018Z,92.68
2023-11-17T00:55:23.965Z,92.68
2023-11-17T00:55:43.970Z,92.83
2023-11-17T00:55:54.648Z,92.72
2023-11-17T00:56:03.935Z,92.79
2023-11-17T00:56:13.937Z,92.68
2023-11-17T00:56:24.664Z,92.79
2023-11-17T00:56:34.149Z,92.79
2023-11-17T00:56:53.924Z,92.89
2023-11-17T00:57:03.954Z,92.93
2023-11-17T00:57:13.936Z,92.83
2023-11-17T00:57:24.659Z,92.68
2023-11-17T00:57:33.926Z,92.63
2023-11-17T00:57:44.123Z,92.72
2023-11-17T00:58:03.976Z,92.58
2023-11-17T00:58:13.951Z,92.48
2023-11-17T00:58:23.946Z,92.38
2023-11-17T00:58:33.917Z,92.38
2023-11-17T00:58:44.016Z,92.17
2023-11-17T00:58:53.957Z,92.07
2023-11-17T00:59:03.918Z,91.90
2023-11-17T00:59:13.925Z,91.86
2023-11-17T00:59:26.789Z,91.75
2023-11-17T00:59:43.913Z,91.90
2023-11-17T00:59:54.006Z,91.86
2023-11-17T01:00:03.913Z,91.96
2023-11-17T01:00:14.160Z,92.00
2023-11-17T01:00:23.934Z,91.86
2023-11-17T01:00:34.670Z,91.75
2023-11-17T01:00:44.111Z,91.69
2023-11-17T01:01:04.030Z,91.65
2023-11-17T01:01:13.959Z,91.69
2023-11-17T01:01:23.994Z,91.65
2023-11-17T01:01:33.970Z,91.80
2023-11-17T01:01:44.014Z,91.80
2023-11-17T01:01:53.992Z,91.90
2023-11-17T01:02:03.932Z,92.00
2023-11-17T01:02:13.997Z,92.07
2023-11-17T01:02:23.965Z,92.07
2023-11-17T01:02:33.963Z,92.21
2023-11-17T01:02:44.133Z,92.17
2023-11-17T01:03:03.962Z,92.32
2023-11-17T01:03:13.952Z,92.32
2023-11-17T01:03:24.009Z,92.38
2023-11-17T01:03:34.045Z,92.38
2023-11-17T01:03:44.101Z,92.38
2023-11-17T01:03:53.940Z,92.38
2023-11-17T01:04:04.082Z,92.52
2023-11-17T01:04:13.984Z,92.48
2023-11-17T01:04:33.903Z,92.58
2023-11-17T01:04:46.690Z,92.63
2023-11-17T01:04:53.973Z,92.52
2023-11-17T01:05:03.912Z,92.38
2023-11-17T01:05:13.983Z,92.38
2023-11-17T01:05:23.897Z,92.38
2023-11-17T01:05:43.910Z,92.48
2023-11-17T01:05:53.912Z,92.58
2023-11-17T01:06:03.899Z,92.48
2023-11-17T01:06:13.886Z,92.48
2023-11-17T01:06:23.920Z,92.48
2023-11-17T01:06:33.912Z,92.48
2023-11-17T01:06:53.909Z,92.48
2023-11-17T01:07:03.898Z,92.42
2023-11-17T01:07:13.933Z,92.38
2023-11-17T01:07:23.926Z,92.21
2023-11-17T01:07:33.918Z,92.17
2023-11-17T01:07:43.892Z,92.17
2023-11-17T01:07:53.892Z,92.38
2023-11-17T01:08:03.943Z,92.38
2023-11-17T01:08:13.912Z,92.27
2023-11-17T01:08:24.661Z,92.27
2023-11-17T01:08:43.911Z,92.07
2023-11-17T01:08:53.905Z,91.96
2023-11-17T01:09:04.004Z,92.00
2023-11-17T01:09:13.915Z,92.07
2023-11-17T01:09:23.895Z,92.02
2023-11-17T01:09:33.884Z,92.07
2023-11-17T01:09:53.925Z,92.00
2023-11-17T01:10:03.912Z,92.00
2023-11-17T01:10:13.946Z,92.05
2023-11-17T01:10:23.929Z,91.96
2023-11-17T01:10:33.873Z,92.11
2023-11-17T01:10:43.897Z,92.21
2023-11-17T01:10:53.876Z,92.17
2023-11-17T01:11:13.883Z,92.17
2023-11-17T01:11:23.875Z,92.11
2023-11-17T01:11:33.864Z,92.00
2023-11-17T01:11:43.871Z,91.90
2023-11-17T01:11:53.867Z,92.00
2023-11-17T01:12:04.731Z,91.96
2023-11-17T01:12:23.944Z,91.96
2023-11-17T01:12:33.909Z,91.75
2023-11-17T01:12:43.945Z,91.49
2023-11-17T01:12:54.762Z,91.34
2023-11-17T01:13:04.004Z,91.24
2023-11-17T01:13:14.002Z,91.20
2023-11-17T01:13:33.921Z,91.38
2023-11-17T01:13:43.920Z,91.44
2023-11-17T01:13:53.867Z,91.44
2023-11-17T01:14:03.867Z,91.59
2023-11-17T01:14:13.861Z,91.55
2023-11-17T01:14:23.965Z,91.69
2023-11-17T01:14:43.876Z,91.75
2023-11-17T01:14:54.682Z,91.75
2023-11-17T01:15:03.999Z,91.86
2023-11-17T01:15:13.857Z,91.90
2023-11-17T01:15:23.852Z,91.86
2023-11-17T01:15:33.862Z,92.00
2023-11-17T01:15:43.888Z,92.00
2023-11-17T01:15:54.784Z,91.96
2023-11-17T01:16:13.891Z,92.07
2023-11-17T01:16:23.902Z,92.17
2023-11-17T01:16:33.851Z,92.11
2023-11-17T01:16:43.904Z,92.17
2023-11-17T01:16:53.858Z,92.17
2023-11-17T01:17:04.734Z,92.17
2023-11-17T01:17:13.954Z,92.32
2023-11-17T01:17:23.857Z,92.17
2023-11-17T01:17:33.966Z,92.32
2023-11-17T01:17:53.882Z,92.23
2023-11-17T01:18:03.906Z,92.38
2023-11-17T01:18:13.896Z,92.27
2023-11-17T01:18:23.865Z,92.27
2023-11-17T01:18:33.834Z,92.27
2023-11-17T01:18:43.882Z,92.27
2023-11-17T01:18:53.878Z,92.38
2023-11-17T01:19:13.855Z,92.38
2023-11-17T01:19:23.894Z,92.38
2023-11-17T01:19:33.914Z,92.42
2023-11-17T01:19:43.833Z,92.42
2023-11-17T01:19:53.840Z,92.42
2023-11-17T01:20:03.853Z,92.32
2023-11-17T01:20:14.671Z,92.17
2023-11-17T01:20:23.855Z,92.21
2023-11-17T01:20:34.729Z,92.32
2023-11-17T01:20:43.835Z,92.17
2023-11-17T01:20:53.857Z,92.00
2023-11-17T01:21:04.687Z,91.86
2023-11-17T01:21:14.671Z,91.90
2023-11-17T01:21:23.943Z,91.75
2023-11-17T01:21:43.855Z,91.80
2023-11-17T01:21:53.821Z,91.96
2023-11-17T01:22:03.847Z,92.00
2023-11-17T01:22:13.893Z,92.00
2023-11-17T01:22:23.911Z,92.00
2023-11-17T01:22:33.813Z,92.11
2023-11-17T01:22:43.883Z,92.11
2023-11-17T01:22:53.840Z,92.11
2023-11-17T01:23:13.819Z,92.21
2023-11-17T01:23:23.807Z,92.21
2023-11-17T01:23:33.814Z,92.17
2023-11-17T01:23:43.815Z,92.32
2023-11-17T01:23:53.829Z,92.27
2023-11-17T01:24:03.824Z,92.32
2023-11-17T01:24:23.821Z,92.21
2023-11-17T01:24:33.819Z,92.07
2023-11-17T01:24:44.016Z,92.11
2023-11-17T01:24:53.821Z,92.21
2023-11-17T01:25:03.850Z,92.21
2023-11-17T01:25:13.853Z,92.21
2023-11-17T01:25:33.805Z,92.00
2023-11-17T01:25:43.818Z,91.90
2023-11-17T01:25:53.822Z,91.80
2023-11-17T01:26:03.802Z,91.69
2023-11-17T01:26:13.813Z,91.90
2023-11-17T01:26:23.805Z,91.90
2023-11-17T01:26:43.797Z,91.90
2023-11-17T01:26:53.825Z,92.00
2023-11-17T01:27:03.836Z,92.11
2023-11-17T01:27:13.795Z,92.21
2023-11-17T01:27:23.802Z,92.21
2023-11-17T01:27:33.806Z,92.25
2023-11-17T01:27:43.874Z,92.32
2023-11-17T01:28:03.819Z,92.25
2023-11-17T01:28:13.830Z,92.25
2023-11-17T01:28:23.875Z,92.00
2023-11-17T01:28:33.799Z,91.94
2023-11-17T01:28:43.795Z,91.69
2023-11-17T01:28:53.796Z,91.74
2023-11-17T01:29:13.837Z,91.69
2023-11-17T01:29:24.680Z,91.74
2023-11-17T01:29:33.881Z,91.74
2023-11-17T01:29:43.797Z,91.84
2023-11-17T01:29:53.851Z,91.74
2023-11-17T01:30:03.784Z,91.69
2023-11-17T01:30:25.144Z,91.74
2023-11-17T01:30:33.815Z,91.80
2023-11-17T01:30:43.787Z,91.84
2023-11-17T01:30:53.928Z,91.84
2023-11-17T01:31:03.974Z,91.84
2023-11-17T01:31:13.916Z,91.94
2023-11-17T01:31:23.830Z,91.80
2023-11-17T01:31:43.773Z,91.90
2023-11-17T01:31:53.780Z,92.05
2023-11-17T01:32:03.785Z,92.05
2023-11-17T01:32:13.777Z,92.15
2023-11-17T01:32:23.779Z,92.05
2023-11-17T01:32:33.862Z,92.05
2023-11-17T01:32:43.898Z,92.11
2023-11-17T01:32:53.790Z,92.00
2023-11-17T01:33:04.787Z,92.15
2023-11-17T01:33:14.736Z,92.25
2023-11-17T01:33:23.793Z,92.36
2023-11-17T01:33:43.982Z,92.25
2023-11-17T01:33:53.902Z,92.36
2023-11-17T01:34:03.862Z,92.36
2023-11-17T01:34:13.910Z,92.46
2023-11-17T01:34:23.852Z,92.52
2023-11-17T01:34:33.861Z,92.57
2023-11-17T01:34:53.803Z,92.57
2023-11-17T01:35:03.837Z,92.57
2023-11-17T01:35:13.809Z,92.42
2023-11-17T01:35:24.660Z,92.36
2023-11-17T01:35:33.846Z,92.36
2023-11-17T01:35:43.765Z,92.25
2023-11-17T01:35:53.770Z,92.25
2023-11-17T01:36:13.875Z,92.25
2023-11-17T01:36:23.769Z,92.30
2023-11-17T01:36:33.764Z,92.36
2023-11-17T01:36:43.836Z,92.36
2023-11-17T01:36:53.804Z,92.46
2023-11-17T01:37:03.814Z,92.46
2023-11-17T01:37:24.795Z,92.67
2023-11-17T01:37:34.678Z,92.67
2023-11-17T01:37:43.786Z,92.67
2023-11-17T01:37:53.831Z,92.67
2023-11-17T01:38:03.749Z,92.57
2023-11-17T01:38:13.774Z,92.57
2023-11-17T01:38:40.501Z,92.71
2023-11-17T01:38:50.858Z,92.71
2023-11-17T01:38:54.972Z,92.67
2023-11-17T01:39:03.753Z,92.77
2023-11-17T01:39:14.690Z,92.77
2023-11-17T01:39:23.742Z,92.67
2023-11-17T01:39:33.752Z,92.81
2023-11-17T01:39:53.757Z,92.67
2023-11-17T01:40:03.806Z,92.67
2023-11-17T01:40:13.870Z,92.67
2023-11-17T01:40:23.893Z,92.67
2023-11-17T01:40:33.767Z,92.81
2023-11-17T01:40:43.849Z,92.87
2023-11-17T01:40:53.750Z,92.87
2023-11-17T01:41:13.736Z,92.91
2023-11-17T01:41:23.735Z,93.08
2023-11-17T01:41:33.765Z,93.12
2023-11-17T01:41:44.731Z,93.23
2023-11-17T01:41:53.830Z,93.29
2023-11-17T01:42:03.868Z,93.33
2023-11-17T01:42:13.773Z,93.33
2023-11-17T01:42:23.732Z,93.29
2023-11-17T01:42:43.783Z,93.29
2023-11-17T01:42:53.772Z,93.08
2023-11-17T01:43:03.760Z,93.08
2023-11-17T01:43:14.764Z,92.97
2023-11-17T01:43:23.821Z,93.02
2023-11-17T01:43:33.726Z,93.02
2023-11-17T01:43:53.760Z,93.23
2023-11-17T01:44:03.726Z,93.27
2023-11-17T01:44:13.829Z,93.33
2023-11-17T01:44:23.750Z,93.43
2023-11-17T01:44:33.772Z,93.54
2023-11-17T01:44:43.731Z,93.54
2023-11-17T01:45:03.826Z,93.64
2023-11-17T01:45:13.751Z,93.64
2023-11-17T01:45:23.847Z,93.49
2023-11-17T01:45:33.794Z,93.43
2023-11-17T01:45:44.058Z,93.43
2023-11-17T01:45:54.795Z,93.43
2023-11-17T01:46:03.937Z,93.54
2023-11-17T01:46:13.820Z,93.43
2023-11-17T01:46:33.799Z,93.54
2023-11-17T01:46:43.756Z,93.58
2023-11-17T01:46:53.813Z,93.54
2023-11-17T01:47:03.786Z,93.54
2023-11-17T01:47:13.800Z,93.64
2023-11-17T01:47:23.708Z,93.74
2023-11-17T01:47:43.788Z,93.74
2023-11-17T01:47:53.766Z,93.79
2023-11-17T01:48:03.743Z,93.74
2023-11-17T01:48:13.741Z,93.64
2023-11-17T01:48:23.724Z,93.70
2023-11-17T01:48:33.748Z,93.85
2023-11-17T01:48:43.766Z,93.85
2023-11-17T01:49:03.725Z,93.99
2023-11-17T01:49:13.789Z,93.95
2023-11-17T01:49:23.790Z,94.06
2023-11-17T01:49:33.706Z,94.06
2023-11-17T01:49:43.725Z,94.10
2023-11-17T01:49:53.753Z,94.16
2023-11-17T01:50:03.812Z,94.26
2023-11-17T01:50:14.021Z,94.26
2023-11-17T01:50:33.832Z,94.26
2023-11-17T01:50:43.702Z,94.31
2023-11-17T01:50:53.735Z,94.41
2023-11-17T01:51:04.733Z,94.37
2023-11-17T01:51:13.698Z,94.47
2023-11-17T01:51:23.710Z,94.47
2023-11-17T01:51:43.762Z,94.57
2023-11-17T01:51:53.913Z,94.57
2023-11-17T01:52:03.728Z,94.57
2023-11-17T01:52:13.714Z,94.57
2023-11-17T01:52:23.800Z,94.57
2023-11-17T01:52:33.687Z,94.47
2023-11-17T01:52:53.722Z,94.57
2023-11-17T01:53:03.688Z,94.57
2023-11-17T01:53:13.711Z,94.57
2023-11-17T01:53:23.692Z,94.57
2023-11-17T01:53:33.693Z,94.57
2023-11-17T01:53:43.758Z,94.57
2023-11-17T01:53:54.690Z,94.68
2023-11-17T01:54:03.742Z,94.57
2023-11-17T01:54:13.832Z,94.57
2023-11-17T01:54:23.709Z,94.53
2023-11-17T01:54:33.697Z,94.57
2023-11-17T01:54:43.797Z,94.57
2023-11-17T01:55:04.681Z,94.57
2023-11-17T01:55:13.904Z,94.68
2023-11-17T01:55:23.745Z,94.68
2023-11-17T01:55:33.682Z,94.72
2023-11-17T01:55:43.721Z,94.57
2023-11-17T01:55:53.699Z,94.57
2023-11-17T01:56:13.727Z,94.57
2023-11-17T01:56:23.673Z,94.62
2023-11-17T01:56:33.682Z,94.62
2023-11-17T01:56:43.686Z,94.47
2023-11-17T01:56:53.673Z,94.47
2023-11-17T01:57:03.704Z,94.47
2023-11-17T01:57:23.690Z,94.57
2023-11-17T01:57:33.665Z,94.57
2023-11-17T01:57:43.816Z,94.57
2023-11-17T01:57:53.726Z,94.57
2023-11-17T01:58:04.217Z,94.57
2023-11-17T01:58:14.216Z,94.51
2023-11-17T01:58:23.776Z,94.51
2023-11-17T01:58:33.673Z,94.57
2023-11-17T01:58:53.723Z,94.57
2023-11-17T01:59:03.679Z,94.72
2023-11-17T01:59:13.670Z,94.57
2023-11-17T01:59:23.768Z,94.57
2023-11-17T01:59:33.672Z,94.62
2023-11-17T01:59:43.666Z,94.51
2023-11-17T02:00:03.664Z,94.26
2023-11-17T02:00:13.659Z,94.31
2023-11-17T02:00:24.206Z,94.31
2023-11-17T02:00:33.676Z,94.16
2023-11-17T02:00:43.712Z,94.16
2023-11-17T02:00:53.747Z,94.20
2023-11-17T02:01:03.690Z,94.31
2023-11-17T02:01:13.713Z,94.16
2023-11-17T02:01:33.785Z,94.26
2023-11-17T02:01:43.658Z,94.20
2023-11-17T02:01:53.674Z,94.31
2023-11-17T02:02:03.667Z,94.37
2023-11-17T02:02:13.724Z,94.31
2023-11-17T02:02:23.730Z,94.37
2023-11-17T02:02:43.744Z,94.47
2023-11-17T02:02:53.746Z,94.51
2023-11-17T02:03:03.785Z,94.41
2023-11-17T02:03:13.766Z,94.51
2023-11-17T02:03:23.780Z,94.41
2023-11-17T02:03:33.699Z,94.45
2023-11-17T02:03:53.777Z,94.51
2023-11-17T02:04:03.851Z,94.47
2023-11-17T02:04:13.719Z,94.51
2023-11-17T02:04:23.665Z,94.57
2023-11-17T02:04:33.704Z,94.47
2023-11-17T02:04:43.705Z,94.62
2023-11-17T02:04:54.174Z,94.57
2023-11-17T02:05:13.706Z,94.57
2023-11-17T02:05:24.200Z,94.72
2023-11-17T02:05:33.633Z,94.72
2023-11-17T02:05:43.628Z,94.62
2023-11-17T02:05:53.642Z,94.72
2023-11-17T02:06:03.673Z,94.72
2023-11-17T02:06:24.360Z,94.82
2023-11-17T02:06:33.698Z,94.82
2023-11-17T02:06:44.290Z,94.78
2023-11-17T02:06:53.698Z,94.82
2023-11-17T02:07:03.674Z,94.82
2023-11-17T02:07:13.668Z,94.82
2023-11-17T02:07:34.179Z,94.82
2023-11-17T02:07:43.646Z,94.82
2023-11-17T02:07:53.622Z,94.82
2023-11-17T02:08:03.643Z,94.82
2023-11-17T02:08:13.641Z,94.82
2023-11-17T02:08:23.753Z,94.93
2023-11-17T02:08:43.620Z,94.93
2023-11-17T02:08:53.628Z,94.97
2023-11-17T02:09:03.636Z,94.93
2023-11-17T02:09:13.632Z,94.89
2023-11-17T02:09:23.626Z,94.93
2023-11-17T02:09:33.703Z,94.93
2023-11-17T02:09:43.634Z,95.03
2023-11-17T02:09:53.654Z,94.93
2023-11-17T02:10:13.687Z,94.93
2023-11-17T02:10:23.703Z,94.93
2023-11-17T02:10:34.194Z,94.93
2023-11-17T02:10:43.712Z,94.93
2023-11-17T02:10:53.625Z,94.93
2023-11-17T02:11:03.607Z,94.93
2023-11-17T02:11:13.668Z,95.03
2023-11-17T02:11:33.607Z,95.03
2023-11-17T02:11:43.625Z,95.03
2023-11-17T02:11:53.633Z,95.18
2023-11-17T02:12:03.611Z,95.14
2023-11-17T02:12:13.641Z,95.14
2023-11-17T02:12:23.607Z,95.14
2023-11-17T02:12:33.616Z,95.09
2023-11-17T02:12:53.649Z,95.14
2023-11-17T02:13:03.668Z,95.14
2023-11-17T02:13:13.678Z,95.14
2023-11-17T02:13:23.701Z,95.14
2023-11-17T02:13:33.604Z,95.14
2023-11-17T02:13:43.708Z,95.09
2023-11-17T02:14:03.740Z,95.07
2023-11-17T02:14:13.621Z,94.98
2023-11-17T02:14:23.685Z,94.98
2023-11-17T02:14:33.725Z,95.14
2023-11-17T02:14:44.195Z,95.14
2023-11-17T02:14:53.598Z,95.03
2023-11-17T02:15:03.641Z,94.93
2023-11-17T02:15:23.649Z,94.72
2023-11-17T02:15:34.322Z,94.76
2023-11-17T02:15:43.601Z,94.62
2023-11-17T02:15:53.617Z,94.57
2023-11-17T02:16:03.841Z,94.62
2023-11-17T02:16:14.265Z,94.66
2023-11-17T02:16:23.714Z,94.51
2023-11-17T02:16:43.742Z,94.62
2023-11-17T02:16:53.636Z,94.72
2023-11-17T02:17:03.617Z,94.72
2023-11-17T02:17:13.646Z,94.72
2023-11-17T02:17:23.761Z,94.82
2023-11-17T02:17:34.209Z,94.87
2023-11-17T02:17:53.757Z,94.93
2023-11-17T02:18:03.605Z,94.93
2023-11-17T02:18:13.605Z,95.03
2023-11-17T02:18:23.603Z,95.03
2023-11-17T02:18:34.173Z,95.03
2023-11-17T02:18:44.188Z,95.03
2023-11-17T02:18:53.720Z,95.14
2023-11-17T02:19:03.650Z,95.14
2023-11-17T02:19:23.607Z,95.14
2023-11-17T02:19:33.655Z,95.28
2023-11-17T02:19:43.579Z,95.24
2023-11-17T02:19:53.582Z,95.24
2023-11-17T02:20:03.592Z,95.24
2023-11-17T02:20:13.803Z,95.24
2023-11-17T02:20:23.582Z,95.24
2023-11-17T02:20:43.671Z,95.03
2023-11-17T02:20:53.620Z,94.98
2023-11-17T02:21:03.588Z,94.97
2023-11-17T02:21:13.565Z,95.03
2023-11-17T02:21:23.566Z,94.93
2023-11-17T02:21:33.647Z,94.97
2023-11-17T02:21:54.279Z,94.87
2023-11-17T02:22:03.622Z,94.87
2023-11-17T02:22:13.604Z,94.82
2023-11-17T02:22:23.628Z,94.87
2023-11-17T02:22:33.572Z,94.93
2023-11-17T02:22:43.569Z,95.03
2023-11-17T02:23:03.652Z,95.18
2023-11-17T02:23:13.569Z,95.18
2023-11-17T02:23:23.556Z,95.24
2023-11-17T02:23:33.580Z,95.14
2023-11-17T02:23:43.558Z,95.14
2023-11-17T02:23:53.589Z,95.07
2023-11-17T02:24:13.563Z,95.07
2023-11-17T02:24:23.562Z,94.97
2023-11-17T02:24:33.556Z,94.93
2023-11-17T02:24:43.556Z,94.97
2023-11-17T02:24:53.614Z,94.93
2023-11-17T02:25:03.728Z,94.93
2023-11-17T02:25:23.586Z,95.03
2023-11-17T02:25:33.568Z,95.07
2023-11-17T02:25:43.551Z,95.24
2023-11-17T02:25:53.548Z,95.34
2023-11-17T02:26:03.566Z,95.39
2023-11-17T02:26:13.642Z,95.49
2023-11-17T02:26:33.559Z,95.34
2023-11-17T02:26:43.714Z,95.34
2023-11-17T02:26:53.566Z,95.24
2023-11-17T02:27:04.176Z,95.28
2023-11-17T02:27:13.637Z,95.24
2023-11-17T02:27:23.551Z,95.28
2023-11-17T02:27:34.182Z,95.28